sensor_id;sensor_type;location;lat;lon;timestamp;P1;durP1;ratioP1;P2;durP2;ratioP2
3249;SDS011;1637;42.020;23.992;2024-02-04T00:00:17;97.20;;;35.10;;
3249;SDS011;1637;42.020;23.992;2024-02-04T00:02:44;69.17;;;26.70;;
3249;SDS011;1637;42.020;23.992;2024-02-04T00:05:11;62.53;;;25.37;;
3249;SDS011;1637;42.020;23.992;2024-02-04T00:07:38;72.60;;;31.10;;
3249;SDS011;1637;42.020;23.992;2024-02-04T00:10:05;90.60;;;34.50;;
3249;SDS011;1637;42.020;23.992;2024-02-04T00:12:32;89.10;;;35.53;;
3249;SDS011;1637;42.020;23.992;2024-02-04T00:14:59;80.23;;;34.47;;
3249;SDS011;1637;42.020;23.992;2024-02-04T00:17:27;98.60;;;39.90;;
3249;SDS011;1637;42.020;23.992;2024-02-04T00:19:56;91.93;;;34.33;;
3249;SDS011;1637;42.020;23.992;2024-02-04T00:22:23;71.03;;;30.83;;
3249;SDS011;1637;42.020;23.992;2024-02-04T00:24:50;74.53;;;31.70;;
3249;SDS011;1637;42.020;23.992;2024-02-04T00:27:17;86.00;;;34.03;;
3249;SDS011;1637;42.020;23.992;2024-02-04T00:29:43;90.73;;;39.30;;
3249;SDS011;1637;42.020;23.992;2024-02-04T00:32:10;96.80;;;40.37;;
3249;SDS011;1637;42.020;23.992;2024-02-04T00:34:38;103.50;;;40.43;;
3249;SDS011;1637;42.020;23.992;2024-02-04T00:37:05;115.90;;;42.50;;
3249;SDS011;1637;42.020;23.992;2024-02-04T00:39:32;101.93;;;42.60;;
3249;SDS011;1637;42.020;23.992;2024-02-04T00:41:58;110.60;;;43.27;;
3249;SDS011;1637;42.020;23.992;2024-02-04T00:44:25;134.60;;;46.77;;
3249;SDS011;1637;42.020;23.992;2024-02-04T00:46:52;97.67;;;40.60;;
3249;SDS011;1637;42.020;23.992;2024-02-04T00:49:19;97.43;;;42.10;;
3249;SDS011;1637;42.020;23.992;2024-02-04T00:51:47;118.80;;;48.00;;
3249;SDS011;1637;42.020;23.992;2024-02-04T00:54:13;127.30;;;51.20;;
3249;SDS011;1637;42.020;23.992;2024-02-04T00:56:40;120.27;;;51.40;;
3249;SDS011;1637;42.020;23.992;2024-02-04T00:59:07;130.53;;;53.83;;
3249;SDS011;1637;42.020;23.992;2024-02-04T01:01:34;117.47;;;43.80;;
3249;SDS011;1637;42.020;23.992;2024-02-04T01:04:00;113.27;;;41.50;;
3249;SDS011;1637;42.020;23.992;2024-02-04T01:06:27;102.87;;;40.40;;
3249;SDS011;1637;42.020;23.992;2024-02-04T01:08:56;103.50;;;42.30;;
3249;SDS011;1637;42.020;23.992;2024-02-04T01:11:23;117.37;;;44.87;;
3249;SDS011;1637;42.020;23.992;2024-02-04T01:13:50;98.47;;;41.30;;
3249;SDS011;1637;42.020;23.992;2024-02-04T01:16:17;111.63;;;44.60;;
3249;SDS011;1637;42.020;23.992;2024-02-04T01:18:43;144.40;;;52.47;;
3249;SDS011;1637;42.020;23.992;2024-02-04T01:21:10;138.03;;;52.87;;
3249;SDS011;1637;42.020;23.992;2024-02-04T01:23:37;135.77;;;51.53;;
3249;SDS011;1637;42.020;23.992;2024-02-04T01:26:05;107.03;;;42.83;;
3249;SDS011;1637;42.020;23.992;2024-02-04T01:28:32;103.30;;;41.30;;
3249;SDS011;1637;42.020;23.992;2024-02-04T01:30:58;84.27;;;36.97;;
3249;SDS011;1637;42.020;23.992;2024-02-04T01:33:25;90.80;;;38.50;;
3249;SDS011;1637;42.020;23.992;2024-02-04T01:35:52;89.27;;;40.73;;
3249;SDS011;1637;42.020;23.992;2024-02-04T01:38:19;81.90;;;35.47;;
3249;SDS011;1637;42.020;23.992;2024-02-04T01:40:45;89.43;;;36.53;;
3249;SDS011;1637;42.020;23.992;2024-02-04T01:43:13;82.30;;;35.50;;
3249;SDS011;1637;42.020;23.992;2024-02-04T01:45:40;77.23;;;33.90;;
3249;SDS011;1637;42.020;23.992;2024-02-04T01:48:07;88.47;;;36.77;;
3249;SDS011;1637;42.020;23.992;2024-02-04T01:50:34;84.93;;;35.90;;
3249;SDS011;1637;42.020;23.992;2024-02-04T01:53:01;104.30;;;39.13;;
3249;SDS011;1637;42.020;23.992;2024-02-04T01:55:27;87.17;;;39.50;;
3249;SDS011;1637;42.020;23.992;2024-02-04T01:57:54;90.57;;;35.80;;
3249;SDS011;1637;42.020;23.992;2024-02-04T02:00:22;83.37;;;36.10;;
3249;SDS011;1637;42.020;23.992;2024-02-04T02:02:49;92.93;;;36.90;;
3249;SDS011;1637;42.020;23.992;2024-02-04T02:05:18;83.57;;;34.50;;
3249;SDS011;1637;42.020;23.992;2024-02-04T02:07:45;96.33;;;37.53;;
3249;SDS011;1637;42.020;23.992;2024-02-04T02:10:16;72.30;;;32.60;;
3249;SDS011;1637;42.020;23.992;2024-02-04T02:12:43;96.60;;;36.20;;
3249;SDS011;1637;42.020;23.992;2024-02-04T02:15:15;80.40;;;30.40;;
3249;SDS011;1637;42.020;23.992;2024-02-04T02:17:47;58.70;;;24.00;;
3249;SDS011;1637;42.020;23.992;2024-02-04T02:20:20;55.97;;;22.27;;
3249;SDS011;1637;42.020;23.992;2024-02-04T02:22:56;48.63;;;21.93;;
3249;SDS011;1637;42.020;23.992;2024-02-04T02:25:30;51.07;;;24.43;;
3249;SDS011;1637;42.020;23.992;2024-02-04T02:27:58;52.63;;;23.40;;
3249;SDS011;1637;42.020;23.992;2024-02-04T02:30:25;60.13;;;25.60;;
3249;SDS011;1637;42.020;23.992;2024-02-04T02:32:51;52.97;;;22.60;;
3249;SDS011;1637;42.020;23.992;2024-02-04T02:35:19;54.80;;;25.03;;
3249;SDS011;1637;42.020;23.992;2024-02-04T02:37:47;74.73;;;26.03;;
3249;SDS011;1637;42.020;23.992;2024-02-04T02:40:23;57.87;;;24.50;;
3249;SDS011;1637;42.020;23.992;2024-02-04T02:42:54;47.17;;;23.07;;
3249;SDS011;1637;42.020;23.992;2024-02-04T02:45:22;49.67;;;21.50;;
3249;SDS011;1637;42.020;23.992;2024-02-04T02:47:52;58.70;;;25.03;;
3249;SDS011;1637;42.020;23.992;2024-02-04T02:50:20;64.03;;;26.73;;
3249;SDS011;1637;42.020;23.992;2024-02-04T02:52:47;51.60;;;22.37;;
3249;SDS011;1637;42.020;23.992;2024-02-04T02:55:14;48.47;;;22.93;;
3249;SDS011;1637;42.020;23.992;2024-02-04T02:57:41;49.33;;;23.10;;
3249;SDS011;1637;42.020;23.992;2024-02-04T03:00:10;45.20;;;20.07;;
3249;SDS011;1637;42.020;23.992;2024-02-04T03:02:37;48.37;;;23.23;;
3249;SDS011;1637;42.020;23.992;2024-02-04T03:05:04;55.33;;;23.47;;
3249;SDS011;1637;42.020;23.992;2024-02-04T03:07:31;51.03;;;25.43;;
3249;SDS011;1637;42.020;23.992;2024-02-04T03:09:58;61.73;;;26.70;;
3249;SDS011;1637;42.020;23.992;2024-02-04T03:12:25;54.67;;;25.20;;
3249;SDS011;1637;42.020;23.992;2024-02-04T03:14:51;46.47;;;23.60;;
3249;SDS011;1637;42.020;23.992;2024-02-04T03:17:20;57.23;;;25.47;;
3249;SDS011;1637;42.020;23.992;2024-02-04T03:19:47;59.67;;;26.83;;
3249;SDS011;1637;42.020;23.992;2024-02-04T03:22:16;63.43;;;27.23;;
3249;SDS011;1637;42.020;23.992;2024-02-04T03:24:43;52.27;;;24.23;;
3249;SDS011;1637;42.020;23.992;2024-02-04T03:27:10;48.73;;;23.77;;
3249;SDS011;1637;42.020;23.992;2024-02-04T03:29:36;48.47;;;21.33;;
3249;SDS011;1637;42.020;23.992;2024-02-04T03:32:04;58.10;;;26.03;;
3249;SDS011;1637;42.020;23.992;2024-02-04T03:34:32;56.80;;;26.97;;
3249;SDS011;1637;42.020;23.992;2024-02-04T03:37:00;75.47;;;31.87;;
3249;SDS011;1637;42.020;23.992;2024-02-04T03:39:27;84.20;;;34.27;;
3249;SDS011;1637;42.020;23.992;2024-02-04T03:41:53;66.73;;;29.70;;
3249;SDS011;1637;42.020;23.992;2024-02-04T03:44:20;119.47;;;43.33;;
3249;SDS011;1637;42.020;23.992;2024-02-04T03:46:47;100.10;;;37.57;;
3249;SDS011;1637;42.020;23.992;2024-02-04T03:49:15;69.43;;;31.80;;
3249;SDS011;1637;42.020;23.992;2024-02-04T03:51:43;71.53;;;31.97;;
3249;SDS011;1637;42.020;23.992;2024-02-04T03:54:10;67.50;;;28.17;;
3249;SDS011;1637;42.020;23.992;2024-02-04T03:56:37;81.30;;;31.17;;
3249;SDS011;1637;42.020;23.992;2024-02-04T03:59:03;50.00;;;25.27;;
3249;SDS011;1637;42.020;23.992;2024-02-04T04:01:31;69.20;;;28.33;;
3249;SDS011;1637;42.020;23.992;2024-02-04T04:03:58;69.13;;;29.87;;
3249;SDS011;1637;42.020;23.992;2024-02-04T04:06:25;65.37;;;33.20;;
3249;SDS011;1637;42.020;23.992;2024-02-04T04:08:53;68.73;;;30.90;;
3249;SDS011;1637;42.020;23.992;2024-02-04T04:11:20;54.37;;;27.17;;
3249;SDS011;1637;42.020;23.992;2024-02-04T04:13:48;76.13;;;29.90;;
3249;SDS011;1637;42.020;23.992;2024-02-04T04:16:14;80.30;;;30.40;;
3249;SDS011;1637;42.020;23.992;2024-02-04T04:18:41;93.57;;;36.70;;
3249;SDS011;1637;42.020;23.992;2024-02-04T04:21:08;101.73;;;42.57;;
3249;SDS011;1637;42.020;23.992;2024-02-04T04:23:35;70.67;;;31.40;;
3249;SDS011;1637;42.020;23.992;2024-02-04T04:26:03;62.83;;;28.50;;
3249;SDS011;1637;42.020;23.992;2024-02-04T04:28:30;65.13;;;30.43;;
3249;SDS011;1637;42.020;23.992;2024-02-04T04:30:57;49.00;;;25.53;;
3249;SDS011;1637;42.020;23.992;2024-02-04T04:33:24;58.67;;;25.80;;
3249;SDS011;1637;42.020;23.992;2024-02-04T04:35:51;71.70;;;28.90;;
3249;SDS011;1637;42.020;23.992;2024-02-04T04:38:17;74.87;;;31.97;;
3249;SDS011;1637;42.020;23.992;2024-02-04T04:40:44;55.97;;;27.17;;
3249;SDS011;1637;42.020;23.992;2024-02-04T04:43:12;69.83;;;31.40;;
3249;SDS011;1637;42.020;23.992;2024-02-04T04:45:39;62.67;;;28.17;;
3249;SDS011;1637;42.020;23.992;2024-02-04T04:48:06;80.27;;;32.97;;
3249;SDS011;1637;42.020;23.992;2024-02-04T04:50:34;68.33;;;32.07;;
3249;SDS011;1637;42.020;23.992;2024-02-04T04:53:00;86.77;;;33.10;;
3249;SDS011;1637;42.020;23.992;2024-02-04T04:55:27;87.57;;;40.50;;
3249;SDS011;1637;42.020;23.992;2024-02-04T04:57:54;81.17;;;36.20;;
3249;SDS011;1637;42.020;23.992;2024-02-04T05:00:22;66.87;;;26.53;;
3249;SDS011;1637;42.020;23.992;2024-02-04T05:02:49;72.37;;;31.60;;
3249;SDS011;1637;42.020;23.992;2024-02-04T05:05:16;84.73;;;34.60;;
3249;SDS011;1637;42.020;23.992;2024-02-04T05:07:42;73.80;;;34.07;;
3249;SDS011;1637;42.020;23.992;2024-02-04T05:10:11;92.73;;;38.57;;
3249;SDS011;1637;42.020;23.992;2024-02-04T05:12:39;82.83;;;34.23;;
3249;SDS011;1637;42.020;23.992;2024-02-04T05:15:06;81.80;;;30.57;;
3249;SDS011;1637;42.020;23.992;2024-02-04T05:17:35;65.13;;;30.00;;
3249;SDS011;1637;42.020;23.992;2024-02-04T05:20:02;61.60;;;27.97;;
3249;SDS011;1637;42.020;23.992;2024-02-04T05:22:30;55.70;;;24.43;;
3249;SDS011;1637;42.020;23.992;2024-02-04T05:24:56;128.23;;;43.00;;
3249;SDS011;1637;42.020;23.992;2024-02-04T05:27:23;123.70;;;45.47;;
3249;SDS011;1637;42.020;23.992;2024-02-04T05:29:51;108.10;;;44.57;;
3249;SDS011;1637;42.020;23.992;2024-02-04T05:32:17;51.63;;;23.10;;
3249;SDS011;1637;42.020;23.992;2024-02-04T05:34:45;61.47;;;24.10;;
3249;SDS011;1637;42.020;23.992;2024-02-04T05:37:12;55.63;;;23.43;;
3249;SDS011;1637;42.020;23.992;2024-02-04T05:39:39;65.97;;;24.67;;
3249;SDS011;1637;42.020;23.992;2024-02-04T05:42:06;75.50;;;33.97;;
3249;SDS011;1637;42.020;23.992;2024-02-04T05:44:33;84.60;;;33.27;;
3249;SDS011;1637;42.020;23.992;2024-02-04T05:46:59;56.47;;;27.30;;
3249;SDS011;1637;42.020;23.992;2024-02-04T05:49:26;51.77;;;25.27;;
3249;SDS011;1637;42.020;23.992;2024-02-04T05:51:55;53.73;;;23.40;;
3249;SDS011;1637;42.020;23.992;2024-02-04T05:54:21;61.63;;;27.37;;
3249;SDS011;1637;42.020;23.992;2024-02-04T05:56:48;58.53;;;27.80;;
3249;SDS011;1637;42.020;23.992;2024-02-04T05:59:15;120.23;;;48.87;;
3249;SDS011;1637;42.020;23.992;2024-02-04T06:01:42;154.67;;;54.43;;
3249;SDS011;1637;42.020;23.992;2024-02-04T06:04:10;106.97;;;41.20;;
3249;SDS011;1637;42.020;23.992;2024-02-04T06:06:36;96.27;;;41.07;;
3249;SDS011;1637;42.020;23.992;2024-02-04T06:09:05;70.87;;;32.50;;
3249;SDS011;1637;42.020;23.992;2024-02-04T06:11:33;113.77;;;39.20;;
3249;SDS011;1637;42.020;23.992;2024-02-04T06:14:00;87.13;;;37.03;;
3249;SDS011;1637;42.020;23.992;2024-02-04T06:16:27;100.90;;;39.27;;
3249;SDS011;1637;42.020;23.992;2024-02-04T06:18:54;83.17;;;33.90;;
3249;SDS011;1637;42.020;23.992;2024-02-04T06:21:23;80.87;;;35.30;;
3249;SDS011;1637;42.020;23.992;2024-02-04T06:23:50;98.47;;;31.07;;
3249;SDS011;1637;42.020;23.992;2024-02-04T06:26:18;80.80;;;36.40;;
3249;SDS011;1637;42.020;23.992;2024-02-04T06:28:45;244.70;;;88.87;;
3249;SDS011;1637;42.020;23.992;2024-02-04T06:31:13;175.50;;;68.67;;
3249;SDS011;1637;42.020;23.992;2024-02-04T06:33:40;185.97;;;70.27;;
3249;SDS011;1637;42.020;23.992;2024-02-04T06:36:08;201.83;;;77.13;;
3249;SDS011;1637;42.020;23.992;2024-02-04T06:38:36;89.77;;;34.30;;
3249;SDS011;1637;42.020;23.992;2024-02-04T06:41:03;87.67;;;37.10;;
3249;SDS011;1637;42.020;23.992;2024-02-04T06:43:31;105.23;;;43.83;;
3249;SDS011;1637;42.020;23.992;2024-02-04T06:45:58;143.97;;;57.00;;
3249;SDS011;1637;42.020;23.992;2024-02-04T06:48:25;112.90;;;48.60;;
3249;SDS011;1637;42.020;23.992;2024-02-04T06:50:52;120.17;;;52.03;;
3249;SDS011;1637;42.020;23.992;2024-02-04T06:53:19;41.40;;;20.87;;
3249;SDS011;1637;42.020;23.992;2024-02-04T06:55:45;73.97;;;30.50;;
3249;SDS011;1637;42.020;23.992;2024-02-04T06:58:12;68.50;;;27.90;;
3249;SDS011;1637;42.020;23.992;2024-02-04T07:00:40;66.83;;;28.90;;
3249;SDS011;1637;42.020;23.992;2024-02-04T07:03:07;118.17;;;45.57;;
3249;SDS011;1637;42.020;23.992;2024-02-04T07:05:34;119.33;;;48.00;;
3249;SDS011;1637;42.020;23.992;2024-02-04T07:08:02;127.80;;;52.73;;
3249;SDS011;1637;42.020;23.992;2024-02-04T07:10:28;99.00;;;41.63;;
3249;SDS011;1637;42.020;23.992;2024-02-04T07:12:55;104.13;;;45.40;;
3249;SDS011;1637;42.020;23.992;2024-02-04T07:15:22;22.80;;;13.20;;
3249;SDS011;1637;42.020;23.992;2024-02-04T07:17:51;57.57;;;26.23;;
3249;SDS011;1637;42.020;23.992;2024-02-04T07:20:18;78.37;;;32.70;;
3249;SDS011;1637;42.020;23.992;2024-02-04T07:22:45;152.60;;;50.47;;
3249;SDS011;1637;42.020;23.992;2024-02-04T07:25:11;40.87;;;21.40;;
3249;SDS011;1637;42.020;23.992;2024-02-04T07:27:38;35.43;;;18.90;;
3249;SDS011;1637;42.020;23.992;2024-02-04T07:30:06;42.67;;;21.90;;
3249;SDS011;1637;42.020;23.992;2024-02-04T07:32:33;85.97;;;41.03;;
3249;SDS011;1637;42.020;23.992;2024-02-04T07:35:04;81.73;;;35.07;;
3249;SDS011;1637;42.020;23.992;2024-02-04T07:37:34;101.23;;;44.93;;
3249;SDS011;1637;42.020;23.992;2024-02-04T07:40:00;101.40;;;42.97;;
3249;SDS011;1637;42.020;23.992;2024-02-04T07:42:30;26.10;;;11.17;;
3249;SDS011;1637;42.020;23.992;2024-02-04T07:44:57;85.33;;;38.43;;
3249;SDS011;1637;42.020;23.992;2024-02-04T07:47:24;191.47;;;67.17;;
3249;SDS011;1637;42.020;23.992;2024-02-04T07:49:51;128.00;;;55.00;;
3249;SDS011;1637;42.020;23.992;2024-02-04T07:52:19;80.27;;;35.20;;
3249;SDS011;1637;42.020;23.992;2024-02-04T07:54:45;58.30;;;28.47;;
3249;SDS011;1637;42.020;23.992;2024-02-04T07:57:12;112.17;;;47.00;;
3249;SDS011;1637;42.020;23.992;2024-02-04T07:59:39;109.87;;;42.83;;
3249;SDS011;1637;42.020;23.992;2024-02-04T08:02:06;63.80;;;28.43;;
3249;SDS011;1637;42.020;23.992;2024-02-04T08:04:33;46.47;;;20.10;;
3249;SDS011;1637;42.020;23.992;2024-02-04T08:06:59;141.40;;;50.93;;
3249;SDS011;1637;42.020;23.992;2024-02-04T08:09:28;93.50;;;43.43;;
3249;SDS011;1637;42.020;23.992;2024-02-04T08:11:57;75.20;;;33.60;;
3249;SDS011;1637;42.020;23.992;2024-02-04T08:14:25;59.10;;;25.10;;
3249;SDS011;1637;42.020;23.992;2024-02-04T08:16:52;77.07;;;31.93;;
3249;SDS011;1637;42.020;23.992;2024-02-04T08:19:19;93.57;;;36.17;;
3249;SDS011;1637;42.020;23.992;2024-02-04T08:21:45;53.80;;;22.23;;
3249;SDS011;1637;42.020;23.992;2024-02-04T08:24:12;76.17;;;30.37;;
3249;SDS011;1637;42.020;23.992;2024-02-04T08:26:40;68.80;;;31.70;;
3249;SDS011;1637;42.020;23.992;2024-02-04T08:29:07;42.47;;;22.57;;
3249;SDS011;1637;42.020;23.992;2024-02-04T08:31:34;108.87;;;40.10;;
3249;SDS011;1637;42.020;23.992;2024-02-04T08:34:01;62.03;;;28.53;;
3249;SDS011;1637;42.020;23.992;2024-02-04T08:36:28;69.63;;;31.63;;
3249;SDS011;1637;42.020;23.992;2024-02-04T08:38:56;79.50;;;35.80;;
3249;SDS011;1637;42.020;23.992;2024-02-04T08:41:23;57.93;;;27.83;;
3249;SDS011;1637;42.020;23.992;2024-02-04T08:43:51;67.90;;;30.40;;
3249;SDS011;1637;42.020;23.992;2024-02-04T08:46:17;117.53;;;46.07;;
3249;SDS011;1637;42.020;23.992;2024-02-04T08:48:44;106.03;;;43.80;;
3249;SDS011;1637;42.020;23.992;2024-02-04T08:51:11;112.67;;;51.27;;
3249;SDS011;1637;42.020;23.992;2024-02-04T08:53:38;208.90;;;86.97;;
3249;SDS011;1637;42.020;23.992;2024-02-04T08:56:05;200.60;;;79.10;;
3249;SDS011;1637;42.020;23.992;2024-02-04T08:58:33;171.20;;;79.30;;
3249;SDS011;1637;42.020;23.992;2024-02-04T09:01:03;143.50;;;61.37;;
3249;SDS011;1637;42.020;23.992;2024-02-04T09:03:31;108.97;;;44.80;;
3249;SDS011;1637;42.020;23.992;2024-02-04T09:05:58;33.87;;;17.77;;
3249;SDS011;1637;42.020;23.992;2024-02-04T09:08:24;49.07;;;24.10;;
3249;SDS011;1637;42.020;23.992;2024-02-04T09:10:51;74.00;;;33.20;;
3249;SDS011;1637;42.020;23.992;2024-02-04T09:13:18;122.83;;;50.53;;
3249;SDS011;1637;42.020;23.992;2024-02-04T09:15:45;138.53;;;60.43;;
3249;SDS011;1637;42.020;23.992;2024-02-04T09:18:14;99.63;;;46.70;;
3249;SDS011;1637;42.020;23.992;2024-02-04T09:20:40;103.93;;;48.80;;
3249;SDS011;1637;42.020;23.992;2024-02-04T09:23:07;120.60;;;51.93;;
3249;SDS011;1637;42.020;23.992;2024-02-04T09:25:34;160.17;;;69.87;;
3249;SDS011;1637;42.020;23.992;2024-02-04T09:28:01;88.57;;;36.10;;
3249;SDS011;1637;42.020;23.992;2024-02-04T09:30:27;117.07;;;52.57;;
3249;SDS011;1637;42.020;23.992;2024-02-04T09:32:54;107.87;;;49.93;;
3249;SDS011;1637;42.020;23.992;2024-02-04T09:35:23;105.03;;;50.60;;
3249;SDS011;1637;42.020;23.992;2024-02-04T09:37:49;129.57;;;62.33;;
3249;SDS011;1637;42.020;23.992;2024-02-04T09:40:16;118.13;;;54.47;;
3249;SDS011;1637;42.020;23.992;2024-02-04T09:42:44;136.70;;;61.50;;
3249;SDS011;1637;42.020;23.992;2024-02-04T09:45:11;177.43;;;82.93;;
3249;SDS011;1637;42.020;23.992;2024-02-04T09:47:40;136.80;;;63.40;;
3249;SDS011;1637;42.020;23.992;2024-02-04T09:50:10;111.37;;;56.47;;
3249;SDS011;1637;42.020;23.992;2024-02-04T09:52:39;141.10;;;66.70;;
3249;SDS011;1637;42.020;23.992;2024-02-04T09:55:07;157.60;;;75.20;;
3249;SDS011;1637;42.020;23.992;2024-02-04T09:57:36;162.87;;;78.17;;
3249;SDS011;1637;42.020;23.992;2024-02-04T10:00:03;156.87;;;76.70;;
3249;SDS011;1637;42.020;23.992;2024-02-04T10:02:30;138.23;;;65.37;;
3249;SDS011;1637;42.020;23.992;2024-02-04T10:04:58;103.50;;;50.20;;
3249;SDS011;1637;42.020;23.992;2024-02-04T10:07:25;95.33;;;44.60;;
3249;SDS011;1637;42.020;23.992;2024-02-04T10:09:53;92.43;;;47.80;;
3249;SDS011;1637;42.020;23.992;2024-02-04T10:12:21;145.70;;;66.77;;
3249;SDS011;1637;42.020;23.992;2024-02-04T10:14:51;137.40;;;67.17;;
3249;SDS011;1637;42.020;23.992;2024-02-04T10:17:17;128.50;;;52.87;;
3249;SDS011;1637;42.020;23.992;2024-02-04T10:19:46;63.93;;;31.17;;
3249;SDS011;1637;42.020;23.992;2024-02-04T10:22:13;113.30;;;48.77;;
3249;SDS011;1637;42.020;23.992;2024-02-04T10:24:41;58.10;;;26.57;;
3249;SDS011;1637;42.020;23.992;2024-02-04T10:27:11;32.73;;;16.17;;
3249;SDS011;1637;42.020;23.992;2024-02-04T10:29:38;154.60;;;70.70;;
3249;SDS011;1637;42.020;23.992;2024-02-04T10:32:05;82.00;;;37.67;;
3249;SDS011;1637;42.020;23.992;2024-02-04T10:34:36;16.63;;;9.03;;
3249;SDS011;1637;42.020;23.992;2024-02-04T10:37:03;15.03;;;9.00;;
3249;SDS011;1637;42.020;23.992;2024-02-04T10:39:30;150.13;;;62.57;;
3249;SDS011;1637;42.020;23.992;2024-02-04T10:42:00;75.83;;;35.17;;
3249;SDS011;1637;42.020;23.992;2024-02-04T10:44:31;204.17;;;77.00;;
3249;SDS011;1637;42.020;23.992;2024-02-04T10:47:03;62.80;;;24.47;;
3249;SDS011;1637;42.020;23.992;2024-02-04T10:49:32;19.60;;;10.30;;
3249;SDS011;1637;42.020;23.992;2024-02-04T10:52:02;38.20;;;14.37;;
3249;SDS011;1637;42.020;23.992;2024-02-04T10:54:32;88.23;;;40.13;;
3249;SDS011;1637;42.020;23.992;2024-02-04T10:57:02;69.63;;;34.27;;
3249;SDS011;1637;42.020;23.992;2024-02-04T10:59:33;67.87;;;29.97;;
3249;SDS011;1637;42.020;23.992;2024-02-04T11:02:00;57.80;;;28.87;;
3249;SDS011;1637;42.020;23.992;2024-02-04T11:04:27;56.33;;;27.40;;
3249;SDS011;1637;42.020;23.992;2024-02-04T11:06:55;25.50;;;13.57;;
3249;SDS011;1637;42.020;23.992;2024-02-04T11:09:22;19.73;;;8.00;;
3249;SDS011;1637;42.020;23.992;2024-02-04T11:11:49;97.50;;;47.90;;
3249;SDS011;1637;42.020;23.992;2024-02-04T11:14:19;104.37;;;50.80;;
3249;SDS011;1637;42.020;23.992;2024-02-04T11:16:56;139.43;;;62.03;;
3249;SDS011;1637;42.020;23.992;2024-02-04T11:19:41;102.63;;;51.07;;
3249;SDS011;1637;42.020;23.992;2024-02-04T11:22:25;112.30;;;55.13;;
3249;SDS011;1637;42.020;23.992;2024-02-04T11:25:14;105.87;;;50.97;;
3249;SDS011;1637;42.020;23.992;2024-02-04T11:27:54;103.47;;;48.37;;
3249;SDS011;1637;42.020;23.992;2024-02-04T11:30:20;14.60;;;8.20;;
3249;SDS011;1637;42.020;23.992;2024-02-04T11:32:50;3.87;;;1.70;;
3249;SDS011;1637;42.020;23.992;2024-02-04T11:35:17;6.10;;;1.17;;
3249;SDS011;1637;42.020;23.992;2024-02-04T11:37:46;1.30;;;0.90;;
3249;SDS011;1637;42.020;23.992;2024-02-04T11:40:14;1.73;;;0.90;;
3249;SDS011;1637;42.020;23.992;2024-02-04T11:42:42;3.30;;;1.40;;
3249;SDS011;1637;42.020;23.992;2024-02-04T11:45:09;1.10;;;0.80;;
3249;SDS011;1637;42.020;23.992;2024-02-04T11:47:38;36.97;;;13.83;;
3249;SDS011;1637;42.020;23.992;2024-02-04T11:50:08;95.27;;;42.63;;
3249;SDS011;1637;42.020;23.992;2024-02-04T11:52:35;37.27;;;17.50;;
3249;SDS011;1637;42.020;23.992;2024-02-04T11:55:02;73.10;;;41.10;;
3249;SDS011;1637;42.020;23.992;2024-02-04T11:57:32;30.23;;;16.60;;
3249;SDS011;1637;42.020;23.992;2024-02-04T11:59:59;13.83;;;6.70;;
3249;SDS011;1637;42.020;23.992;2024-02-04T12:02:27;13.23;;;6.80;;
3249;SDS011;1637;42.020;23.992;2024-02-04T12:04:54;4.10;;;2.53;;
3249;SDS011;1637;42.020;23.992;2024-02-04T12:07:22;39.07;;;18.07;;
3249;SDS011;1637;42.020;23.992;2024-02-04T12:09:49;34.60;;;16.63;;
3249;SDS011;1637;42.020;23.992;2024-02-04T12:12:17;55.33;;;26.50;;
3249;SDS011;1637;42.020;23.992;2024-02-04T12:14:44;25.70;;;11.53;;
3249;SDS011;1637;42.020;23.992;2024-02-04T12:17:12;47.43;;;23.87;;
3249;SDS011;1637;42.020;23.992;2024-02-04T12:19:39;75.77;;;38.27;;
3249;SDS011;1637;42.020;23.992;2024-02-04T12:22:06;41.10;;;18.37;;
3249;SDS011;1637;42.020;23.992;2024-02-04T12:24:36;66.37;;;32.47;;
3249;SDS011;1637;42.020;23.992;2024-02-04T12:27:04;59.87;;;25.77;;
3249;SDS011;1637;42.020;23.992;2024-02-04T12:29:32;60.50;;;28.40;;
3249;SDS011;1637;42.020;23.992;2024-02-04T12:31:59;89.27;;;44.60;;
3249;SDS011;1637;42.020;23.992;2024-02-04T12:34:25;35.13;;;19.90;;
3249;SDS011;1637;42.020;23.992;2024-02-04T12:36:57;29.23;;;14.77;;
3249;SDS011;1637;42.020;23.992;2024-02-04T12:39:24;32.53;;;15.60;;
3249;SDS011;1637;42.020;23.992;2024-02-04T12:41:52;72.23;;;32.83;;
3249;SDS011;1637;42.020;23.992;2024-02-04T12:44:19;57.70;;;28.63;;
3249;SDS011;1637;42.020;23.992;2024-02-04T12:46:49;56.20;;;31.23;;
3249;SDS011;1637;42.020;23.992;2024-02-04T12:49:17;24.57;;;13.43;;
3249;SDS011;1637;42.020;23.992;2024-02-04T12:51:45;39.80;;;18.87;;
3249;SDS011;1637;42.020;23.992;2024-02-04T12:54:12;75.43;;;35.77;;
3249;SDS011;1637;42.020;23.992;2024-02-04T12:56:43;38.97;;;18.50;;
3249;SDS011;1637;42.020;23.992;2024-02-04T12:59:22;24.80;;;11.63;;
3249;SDS011;1637;42.020;23.992;2024-02-04T13:01:53;38.60;;;16.20;;
3249;SDS011;1637;42.020;23.992;2024-02-04T13:04:21;43.70;;;18.53;;
3249;SDS011;1637;42.020;23.992;2024-02-04T13:06:48;30.50;;;12.87;;
3249;SDS011;1637;42.020;23.992;2024-02-04T13:09:14;23.87;;;12.20;;
3249;SDS011;1637;42.020;23.992;2024-02-04T13:11:41;27.30;;;12.90;;
3249;SDS011;1637;42.020;23.992;2024-02-04T13:14:08;11.80;;;6.10;;
3249;SDS011;1637;42.020;23.992;2024-02-04T13:16:37;5.77;;;3.17;;
3249;SDS011;1637;42.020;23.992;2024-02-04T13:19:04;39.23;;;20.63;;
3249;SDS011;1637;42.020;23.992;2024-02-04T13:21:32;35.20;;;16.30;;
3249;SDS011;1637;42.020;23.992;2024-02-04T13:23:59;18.80;;;9.07;;
3249;SDS011;1637;42.020;23.992;2024-02-04T13:26:26;21.87;;;8.93;;
3249;SDS011;1637;42.020;23.992;2024-02-04T13:28:52;21.87;;;6.80;;
3249;SDS011;1637;42.020;23.992;2024-02-04T13:31:19;5.93;;;3.50;;
3249;SDS011;1637;42.020;23.992;2024-02-04T13:33:47;16.20;;;7.37;;
3249;SDS011;1637;42.020;23.992;2024-02-04T13:36:14;34.43;;;10.67;;
3249;SDS011;1637;42.020;23.992;2024-02-04T13:38:41;17.70;;;6.50;;
3249;SDS011;1637;42.020;23.992;2024-02-04T13:41:08;7.87;;;3.53;;
3249;SDS011;1637;42.020;23.992;2024-02-04T13:43:35;12.10;;;4.40;;
3249;SDS011;1637;42.020;23.992;2024-02-04T13:46:02;11.70;;;4.07;;
3249;SDS011;1637;42.020;23.992;2024-02-04T13:48:29;8.83;;;5.30;;
3249;SDS011;1637;42.020;23.992;2024-02-04T13:50:57;3.03;;;2.00;;
3249;SDS011;1637;42.020;23.992;2024-02-04T13:53:23;9.10;;;5.57;;
3249;SDS011;1637;42.020;23.992;2024-02-04T13:55:50;7.47;;;4.00;;
3249;SDS011;1637;42.020;23.992;2024-02-04T13:58:18;2.10;;;1.03;;
3249;SDS011;1637;42.020;23.992;2024-02-04T14:00:45;3.83;;;2.00;;
3249;SDS011;1637;42.020;23.992;2024-02-04T14:03:11;17.63;;;8.50;;
3249;SDS011;1637;42.020;23.992;2024-02-04T14:05:38;7.57;;;4.50;;
3249;SDS011;1637;42.020;23.992;2024-02-04T14:08:07;8.10;;;4.07;;
3249;SDS011;1637;42.020;23.992;2024-02-04T14:10:34;7.73;;;3.97;;
3249;SDS011;1637;42.020;23.992;2024-02-04T14:13:01;22.53;;;9.97;;
3249;SDS011;1637;42.020;23.992;2024-02-04T14:15:30;30.10;;;14.13;;
3249;SDS011;1637;42.020;23.992;2024-02-04T14:17:57;21.10;;;11.00;;
3249;SDS011;1637;42.020;23.992;2024-02-04T14:20:25;16.80;;;7.53;;
3249;SDS011;1637;42.020;23.992;2024-02-04T14:22:52;22.37;;;10.90;;
3249;SDS011;1637;42.020;23.992;2024-02-04T14:25:20;19.43;;;6.67;;
3249;SDS011;1637;42.020;23.992;2024-02-04T14:27:47;10.23;;;3.50;;
3249;SDS011;1637;42.020;23.992;2024-02-04T14:30:14;20.77;;;9.80;;
3249;SDS011;1637;42.020;23.992;2024-02-04T14:32:41;18.67;;;5.90;;
3249;SDS011;1637;42.020;23.992;2024-02-04T14:35:08;10.03;;;5.10;;